Unbenanntes Dokument
Flugplatz Bielefeld Platzwetter

 

Aktuelles Platzwetter am Flugplatz Bielefeld EDLI

25.02.18 ,15:45 Uhr

METAR EDLI 251545Z 09010KT 9999 ///050 ///071 M02/M12 Q1030

 

Windwerte

 

Wolkenuntergrenzen

Wind aktuell:060 ° mit 10 kt
Wind 10 min Extrem:
50 ° bis 120 ° mit 5 kt bis 16 kt
Seitenwindkomponente: -7.4 kt
Wolkengrenze 1: 5600 ft
Wolkengrenze 2: 6400 ft
Wolkengrenze 3:

Webcam

Temperatur

       

Sichtweite:

20.000 Meter

-2.9 °C
Taupunkt: -12.3 °C
Luftfeuchtigkeit: 48 %

Luftdruck:

QNH: 1030 hPa (30.42 in Hg)
QFE: 1013 hPa (29.91 in Hg)

Diese Daten werden automatisch ermittelt bzw. übertragen und sind nicht geprüft. Für die Richtigkeit wird daher keine Gewähr übernommen. Sie ersetzen im übrigen nicht die Flugwetterberatung. Alle Zeitangaben beziehen sich auf UTC. Die Seite wird einmal die Minute aktualisiert! Sollten Sie ein ältere Seite haben, so drücken Sie bitte auf den Reload Button Ihres Browsers!